Verifier — MLWN4 — position and weather

sailwx.info

Track history (hours):
 
Tides and Currents Weather Stations Pressure Air Temp Water Temp Dewpoint Dewpoint Depression Visibility Wind Speed Wind Dir Waves Ship Positions

Verifier

Last reported at 2018-Apr-19 18:57 UTC. Time now 2018-Apr-20 02:42 UTC.
Position N 51°27' E 003°36'.

Length 21 m; draft 5 m.

Type: Ship. MMSI: 235000932.

Date/timePositionNaut miles runAvg speedWind from/ knotsBaromVisibWave heightAir tempDewpointWater temp
2018-Apr-19 18:57N 51°27' E 003°36'0 0.8
2018-Apr-19 18:30N 51°27' E 003°35'0 0.0
2018-Apr-19 12:48N 51°27' E 003°35'0 0.1
2018-Apr-19 10:56N 51°27' E 003°36'5 1.0
2018-Apr-19 06:32N 51°26' E 003°29'123.3
2018-Apr-19 06:28N 51°26' E 003°31'3 0.2
2018-Apr-18 13:12N 51°27' E 003°35'0 0.0
2018-Apr-18 12:43N 51°27' E 003°35'0 0.0
2018-Apr-18 12:16N 51°27' E 003°35'0 0.0
2018-Apr-18 11:05N 51°27' E 003°35'0 0.0
2018-Apr-18 10:38N 51°27' E 003°35'0 0.0
2018-Apr-18 10:30N 51°27' E 003°35'0 0.0
2018-Apr-18 09:39N 51°27' E 003°35'0 0.0
2018-Apr-18 07:55N 51°27' E 003°35'0 0.0
2018-Apr-17 14:36N 51°27' E 003°36'0 0.8
2018-Apr-17 14:29N 51°27' E 003°36'11 1.7
2018-Apr-17 08:11N 51°25' E 003°18'621.0
2018-Apr-17 07:53N 51°25' E 003°28'5 0.4
2018-Apr-16 18:57N 51°27' E 003°36'0 0.0
2018-Apr-16 18:28N 51°27' E 003°36'715.3
2018-Apr-16 18:00N 51°24' E 003°25'3 0.9
2018-Apr-16 14:41N 51°25' E 003°20'318.8
2018-Apr-16 14:30N 51°25' E 003°26'  
2018-Apr-13 16:01N 51°27' E 003°36'0 0.2
2018-Apr-13 15:59N 51°27' E 003°36'0 0.0
2018-Apr-13 15:29N 51°27' E 003°36'0 0.0
2018-Apr-13 14:36N 51°27' E 003°36'0 0.0
2018-Apr-13 14:30N 51°27' E 003°36'815.1
2018-Apr-13 13:59N 51°24' E 003°24'4 0.9
2018-Apr-13 09:24N 51°25' E 003°18'717.5
2018-Apr-13 09:00N 51°25' E 003°29'4 8.6
2018-Apr-13 08:29N 51°27' E 003°36'0 0.3
2018-Apr-13 07:29N 51°27' E 003°36'0 0.0
2018-Apr-13 06:19N 51°27' E 003°36'0 0.0
2018-Apr-13 05:55N 51°27' E 003°36'0 0.0
2018-Apr-13 05:23N 51°27' E 003°35'0 0.0
2018-Apr-12 17:17N 51°27' E 003°35'0 0.0
2018-Apr-12 16:51N 51°27' E 003°36'0 0.0
2018-Apr-12 16:29N 51°27' E 003°36'0 0.0
2018-Apr-12 16:00N 51°27' E 003°35'0 0.0
2018-Apr-12 15:07N 51°27' E 003°36'0 0.0
2018-Apr-12 14:59N 51°27' E 003°36'0 0.0
2018-Apr-12 14:17N 51°27' E 003°36'0 0.0
2018-Apr-12 13:48N 51°27' E 003°36'0 0.0
2018-Apr-12 13:21N 51°27' E 003°35'0 0.0
2018-Apr-12 11:40N 51°27' E 003°36'0 0.0
2018-Apr-12 06:56N 51°27' E 003°36'0 0.0
2018-Apr-12 06:27N 51°27' E 003°36'0 0.0
2018-Apr-11 19:48N 51°27' E 003°36'0 0.0
2018-Apr-11 19:29N 51°27' E 003°36'0 0.0
2018-Apr-11 19:00N 51°27' E 003°36'0 0.0
2018-Apr-11 18:30N 51°27' E 003°36'0 0.0
2018-Apr-11 17:57N 51°27' E 003°36'0 0.0
2018-Apr-11 17:30N 51°27' E 003°36'0 0.0
2018-Apr-11 16:56N 51°27' E 003°36'0 0.0
2018-Apr-11 16:23N 51°27' E 003°36'0 0.0
2018-Apr-11 15:53N 51°27' E 003°36'0 0.0
2018-Apr-11 15:25N 51°27' E 003°36'0 0.1
2018-Apr-11 14:57N 51°27' E 003°36'0 0.0
2018-Apr-11 14:29N 51°27' E 003°36'0 0.0
2018-Apr-11 13:43N 51°27' E 003°36'0 0.0
2018-Apr-11 13:27N 51°27' E 003°36'0 0.0
2018-Apr-11 12:49N 51°27' E 003°36'0 0.0
2018-Apr-11 12:26N 51°27' E 003°36'0 0.0
2018-Apr-11 12:00N 51°27' E 003°36'0 0.0
2018-Apr-11 11:21N 51°27' E 003°36'0 0.0
2018-Apr-11 10:59N 51°27' E 003°36'0 0.0
2018-Apr-11 10:27N 51°27' E 003°36'0 0.0
2018-Apr-11 09:56N 51°27' E 003°36'0 0.1
2018-Apr-11 09:28N 51°27' E 003°36'0 0.0
2018-Apr-11 08:03N 51°27' E 003°36'0 0.0
2018-Apr-11 07:50N 51°27' E 003°36'0 0.0
2018-Apr-11 07:21N 51°27' E 003°36'0 0.0
2018-Apr-10 14:49N 51°27' E 003°35'0 0.0
2018-Apr-10 14:23N 51°27' E 003°36'0 0.0
2018-Apr-10 13:56N 51°27' E 003°36'0 0.0
2018-Apr-10 13:29N 51°27' E 003°36'0 0.0
2018-Apr-10 12:45N 51°27' E 003°35'0 0.0
2018-Apr-10 11:58N 51°27' E 003°36'0 0.0
2018-Apr-10 11:26N 51°27' E 003°36'0 0.0
2018-Apr-10 09:51N 51°27' E 003°36'0 0.0
2018-Apr-10 07:57N 51°27' E 003°36'  
Track history (hours):
 
Tides and Currents Weather Stations Pressure Air Temp Water Temp Dewpoint Dewpoint Depression Visibility Wind Speed Wind Dir Waves Ship Positions

Verifier

Last reported at 2018-Apr-19 18:57 UTC. Time now 2018-Apr-20 02:42 UTC.
Position N 51°27' E 003°36'.

Length 21 m; draft 5 m.

Type: Ship. MMSI: 235000932.

Date/timePositionNaut miles runAvg speedWind from/ knotsBaromVisibWave heightAir tempDewpointWater temp
2018-Apr-19 18:57N 51°27' E 003°36'0 0.8
2018-Apr-19 18:30N 51°27' E 003°35'0 0.0
2018-Apr-19 12:48N 51°27' E 003°35'0 0.1
2018-Apr-19 10:56N 51°27' E 003°36'5 1.0
2018-Apr-19 06:32N 51°26' E 003°29'123.3
2018-Apr-19 06:28N 51°26' E 003°31'3 0.2
2018-Apr-18 13:12N 51°27' E 003°35'0 0.0
2018-Apr-18 12:43N 51°27' E 003°35'0 0.0
2018-Apr-18 12:16N 51°27' E 003°35'0 0.0
2018-Apr-18 11:05N 51°27' E 003°35'0 0.0
2018-Apr-18 10:38N 51°27' E 003°35'0 0.0
2018-Apr-18 10:30N 51°27' E 003°35'0 0.0
2018-Apr-18 09:39N 51°27' E 003°35'0 0.0
2018-Apr-18 07:55N 51°27' E 003°35'0 0.0
2018-Apr-17 14:36N 51°27' E 003°36'0 0.8
2018-Apr-17 14:29N 51°27' E 003°36'11 1.7
2018-Apr-17 08:11N 51°25' E 003°18'621.0
2018-Apr-17 07:53N 51°25' E 003°28'5 0.4
2018-Apr-16 18:57N 51°27' E 003°36'0 0.0
2018-Apr-16 18:28N 51°27' E 003°36'715.3
2018-Apr-16 18:00N 51°24' E 003°25'3 0.9
2018-Apr-16 14:41N 51°25' E 003°20'318.8
2018-Apr-16 14:30N 51°25' E 003°26'  
2018-Apr-13 16:01N 51°27' E 003°36'0 0.2
2018-Apr-13 15:59N 51°27' E 003°36'0 0.0
2018-Apr-13 15:29N 51°27' E 003°36'0 0.0
2018-Apr-13 14:36N 51°27' E 003°36'0 0.0
2018-Apr-13 14:30N 51°27' E 003°36'815.1
2018-Apr-13 13:59N 51°24' E 003°24'4 0.9
2018-Apr-13 09:24N 51°25' E 003°18'717.5
2018-Apr-13 09:00N 51°25' E 003°29'4 8.6
2018-Apr-13 08:29N 51°27' E 003°36'0 0.3
2018-Apr-13 07:29N 51°27' E 003°36'0 0.0
2018-Apr-13 06:19N 51°27' E 003°36'0 0.0
2018-Apr-13 05:55N 51°27' E 003°36'0 0.0
2018-Apr-13 05:23N 51°27' E 003°35'0 0.0
2018-Apr-12 17:17N 51°27' E 003°35'0 0.0
2018-Apr-12 16:51N 51°27' E 003°36'0 0.0
2018-Apr-12 16:29N 51°27' E 003°36'0 0.0
2018-Apr-12 16:00N 51°27' E 003°35'0 0.0
2018-Apr-12 15:07N 51°27' E 003°36'0 0.0
2018-Apr-12 14:59N 51°27' E 003°36'0 0.0
2018-Apr-12 14:17N 51°27' E 003°36'0 0.0
2018-Apr-12 13:48N 51°27' E 003°36'0 0.0
2018-Apr-12 13:21N 51°27' E 003°35'0 0.0
2018-Apr-12 11:40N 51°27' E 003°36'0 0.0
2018-Apr-12 06:56N 51°27' E 003°36'0 0.0
2018-Apr-12 06:27N 51°27' E 003°36'0 0.0
2018-Apr-11 19:48N 51°27' E 003°36'0 0.0
2018-Apr-11 19:29N 51°27' E 003°36'0 0.0
2018-Apr-11 19:00N 51°27' E 003°36'0 0.0
2018-Apr-11 18:30N 51°27' E 003°36'0 0.0
2018-Apr-11 17:57N 51°27' E 003°36'0 0.0
2018-Apr-11 17:30N 51°27' E 003°36'0 0.0
2018-Apr-11 16:56N 51°27' E 003°36'0 0.0
2018-Apr-11 16:23N 51°27' E 003°36'0 0.0
2018-Apr-11 15:53N 51°27' E 003°36'0 0.0
2018-Apr-11 15:25N 51°27' E 003°36'0 0.1
2018-Apr-11 14:57N 51°27' E 003°36'0 0.0
2018-Apr-11 14:29N 51°27' E 003°36'0 0.0
2018-Apr-11 13:43N 51°27' E 003°36'0 0.0
2018-Apr-11 13:27N 51°27' E 003°36'0 0.0
2018-Apr-11 12:49N 51°27' E 003°36'0 0.0
2018-Apr-11 12:26N 51°27' E 003°36'0 0.0
2018-Apr-11 12:00N 51°27' E 003°36'0 0.0
2018-Apr-11 11:21N 51°27' E 003°36'0 0.0
2018-Apr-11 10:59N 51°27' E 003°36'0 0.0
2018-Apr-11 10:27N 51°27' E 003°36'0 0.0
2018-Apr-11 09:56N 51°27' E 003°36'0 0.1
2018-Apr-11 09:28N 51°27' E 003°36'0 0.0
2018-Apr-11 08:03N 51°27' E 003°36'0 0.0
2018-Apr-11 07:50N 51°27' E 003°36'0 0.0
2018-Apr-11 07:21N 51°27' E 003°36'0 0.0
2018-Apr-10 14:49N 51°27' E 003°35'0 0.0
2018-Apr-10 14:23N 51°27' E 003°36'0 0.0
2018-Apr-10 13:56N 51°27' E 003°36'0 0.0
2018-Apr-10 13:29N 51°27' E 003°36'0 0.0
2018-Apr-10 12:45N 51°27' E 003°35'0 0.0
2018-Apr-10 11:58N 51°27' E 003°36'0 0.0
2018-Apr-10 11:26N 51°27' E 003°36'0 0.0
2018-Apr-10 09:51N 51°27' E 003°36'0 0.0
2018-Apr-10 07:57N 51°27' E 003°36'  

Dump ship's entire track history